• Join FlightAware (Why Join?)
  • Login
  • US Flag 
03:19AM EDT


 

Airport Tracker/Info


-or-


 

Live Flight TrackerFlight Track Log ✈ EEA2755 ✈ 05-Nov-2013 ✈ ZSLG / LYG - ZYTX / SHE

Flight Track Log - Related Links

Times and Time Zones

All times are in EST time to prevent confusion due to time zone crossing. See the EEA2755 flight status page for this flight to view local times or setup timezone preferences in your user account.

Time Position Orientation Groundspeed Altitude Reporting Facility
EST Latitude Longitude Course Direction KTS MPH feet Rate Location/Type
10:08PM 35.2080 119.2499 26° Northeast  Level Estimated
10:09PM 35.2787 119.2921 26° Northeast  Level Estimated
10:10PM 35.3429 119.3306 26° Northeast  Level Estimated
10:11PM 35.4072 119.3690 26° Northeast  Level Estimated
10:12PM 35.4714 119.4076 26° Northeast  Level Estimated
10:13PM 35.5356 119.4462 26° Northeast  Level Estimated
10:14PM 35.5999 119.4849 26° Northeast  Level Estimated
10:15PM 35.6641 119.5237 26° Northeast  Level Estimated
10:16PM 35.7282 119.5625 26° Northeast  Level Estimated
10:17PM 35.7924 119.6013 26° Northeast  Level Estimated
10:18PM 35.8566 119.6403 26° Northeast  Level Estimated
10:19PM 35.9207 119.6793 26° Northeast  Level Estimated
10:20PM 35.9849 119.7184 26° Northeast  Level Estimated
10:21PM 36.0490 119.7575 26° Northeast  Level Estimated
10:22PM 36.1131 119.7967 26° Northeast  Level Estimated
10:23PM 36.1772 119.8359 26° Northeast  Level Estimated
10:24PM 36.2413 119.8752 26° Northeast  Level Estimated
10:25PM 36.3054 119.9146 26° Northeast  Level Estimated
10:26PM 36.3694 119.9541 26° Northeast  Level Estimated
10:27PM 36.4335 119.9936 26° Northeast  Level Estimated
10:28PM 36.4975 120.0332 26° Northeast  Level Estimated
10:29PM 36.5615 120.0728 26° Northeast  Level Estimated
10:30PM 36.6255 120.1125 26° Northeast  Level Estimated
10:31PM 36.6895 120.1523 26° Northeast  Level Estimated
10:32PM 36.7535 120.1921 27° Northeast  Level Estimated
10:33PM 36.8175 120.2320 27° Northeast  Level Estimated
10:34PM 36.8814 120.2720 27° Northeast  Level Estimated
10:35PM 36.9454 120.3120 27° Northeast  Level Estimated
10:36PM 37.0093 120.3521 27° Northeast  Level Estimated
10:37PM 37.0732 120.3923 27° Northeast  Level Estimated
10:38PM 37.1371 120.4326 27° Northeast  Level Estimated
10:39PM 37.2010 120.4729 27° Northeast  Level Estimated
10:40PM 37.2649 120.5133 27° Northeast  Level Estimated
10:41PM 37.3287 120.5537 27° Northeast  Level Estimated
10:42PM 37.3926 120.5942 27° Northeast  Level Estimated
10:43PM 37.4564 120.6348 27° Northeast  Level Estimated
10:44PM 37.5202 120.6755 27° Northeast  Level Estimated
10:45PM 37.5840 120.7162 27° Northeast  Level Estimated
10:46PM 37.6478 120.7570 27° Northeast  Level Estimated
10:47PM 37.7116 120.7979 27° Northeast  Level Estimated
10:48PM 37.7753 120.8388 27° Northeast  Level Estimated
10:49PM 37.8391 120.8798 27° Northeast  Level Estimated
10:50PM 37.9028 120.9209 27° Northeast  Level Estimated
10:51PM 37.9665 120.9621 27° Northeast  Level Estimated
10:52PM 38.0302 121.0033 27° Northeast  Level Estimated
10:53PM 38.0939 121.0446 27° Northeast  Level Estimated
10:54PM 38.1576 121.0859 27° Northeast  Level Estimated
10:55PM 38.2212 121.1274 27° Northeast  Level Estimated
10:56PM 38.2849 121.1689 27° Northeast  Level Estimated
10:57PM 38.3485 121.2105 27° Northeast  Level Estimated
10:58PM 38.4121 121.2521 27° Northeast  Level Estimated
10:59PM 38.4757 121.2938 27° Northeast  Level Estimated
11:00PM 38.5393 121.3356 27° Northeast  Level Estimated
11:01PM 38.6029 121.3775 27° Northeast  Level Estimated
11:02PM 38.6665 121.4195 27° Northeast  Level Estimated
11:03PM 38.7300 121.4615 27° Northeast  Level Estimated
11:04PM 38.7935 121.5036 27° Northeast  Level Estimated
11:05PM 38.8570 121.5458 27° Northeast  Level Estimated
11:06PM 38.9205 121.5880 27° Northeast  Level Estimated
11:07PM 38.9840 121.6303 27° Northeast  Level Estimated
11:08PM 39.0475 121.6727 27° Northeast  Level Estimated
11:09PM 39.1109 121.7152 27° Northeast  Level Estimated
11:10PM 39.1744 121.7578 27° Northeast  Level Estimated
11:11PM 39.2378 121.8004 28° Northeast  Level Estimated
11:12PM 39.3012 121.8431 28° Northeast  Level Estimated
11:13PM 39.3646 121.8859 28° Northeast  Level Estimated
11:14PM 39.4280 121.9288 28° Northeast  Level Estimated
11:15PM 39.4913 121.9717 28° Northeast  Level Estimated
11:16PM 39.5546 122.0147 28° Northeast  Level Estimated
11:17PM 39.6180 122.0578 28° Northeast  Level Estimated
11:18PM 39.6813 122.1010 28° Northeast  Level Estimated
11:19PM 39.7446 122.1443 28° Northeast  Level Estimated
11:20PM 39.8079 122.1876 28° Northeast  Level Estimated
11:21PM 39.8711 122.2310 28° Northeast  Level Estimated
11:22PM 39.9344 122.2745 28° Northeast  Level Estimated
11:23PM 39.9976 122.3181 28° Northeast  Level Estimated
11:24PM 40.0608 122.3617 28° Northeast  Level Estimated
11:25PM 40.1240 122.4055 28° Northeast  Level Estimated
11:26PM 40.1872 122.4493 28° Northeast  Level Estimated
11:27PM 40.2503 122.4932 28° Northeast  Level Estimated
11:28PM 40.3135 122.5372 28° Northeast  Level Estimated
11:29PM 40.3766 122.5813 28° Northeast  Level Estimated
11:30PM 40.4397 122.6254 28° Northeast  Level Estimated
11:31PM 40.5028 122.6696 28° Northeast  Level Estimated
11:32PM 40.5659 122.7139 28° Northeast  Level Estimated
11:33PM 40.6290 122.7583 28° Northeast  Level Estimated
11:34PM 40.6920 122.8028 28° Northeast  Level Estimated
11:35PM 40.7551 122.8474 28° Northeast  Level Estimated
11:36PM 40.8181 122.8920 28° Northeast  Level Estimated
11:37PM 40.8811 122.9368 28° Northeast  Level Estimated
11:38PM 40.9440 122.9816 28° Northeast  Level Estimated
11:39PM 41.0070 123.0265 28° Northeast  Level Estimated
11:40PM 41.0699 123.0715 28° Northeast  Level Estimated
11:41PM 41.1329 123.1166 28° Northeast  Level Estimated
11:42PM 41.1958 123.1617 28° Northeast  Level Estimated
11:43PM 41.2587 123.2070 28° Northeast  Level Estimated
11:44PM 41.3215 123.2523 28° Northeast  Level Estimated
11:45PM 41.3844 123.2978 28° Northeast  Level Estimated
11:46PM 41.4472 123.3433 28° Northeast  Level Estimated
11:47PM 41.5100 123.3889 29° Northeast  Level Estimated
11:48PM 41.5728 123.4345 29° Northeast  Level Estimated
11:49PM 41.6356 123.4803 29° Northeast  Level Estimated
11:50PM 41.6398 123.4834 29° Northeast  Level Estimated
11:51PM 41.6398 123.4834 298° West  Level Estimated
11:52PM 41.6398 123.4834 298° West  Level Estimated
11:53PM 41.6398 123.4834 298° West  Level Estimated
11:54PM 41.6398 123.4834 298° West  Level Estimated
11:55PM 41.6398 123.4834 298° West  Level Estimated
11:56PM 41.6398 123.4834 298° West  Level Estimated
11:57PM 41.6398 123.4834 298° West  Level Estimated
11:58PM 41.6398 123.4834 298° West  Level Estimated
11:59PM 41.6398 123.4834 298° West  Level Estimated
12:00AM 41.6398 123.4834 298° West  Level Estimated
12:01AM 41.6398 123.4834 298° West  Level Estimated
12:02AM 41.6398 123.4834 298° West  Level Estimated
12:03AM 41.6398 123.4834 298° West  Level Estimated
12:04AM 41.6398 123.4834 298° West  Level Estimated
12:05AM 41.6398 123.4834 298° West  Level Estimated
12:06AM 41.6398 123.4834 298° West  Level Estimated